sensor_id;sensor_type;location;lat;lon;timestamp;P1;durP1;ratioP1;P2;durP2;ratioP2
35675;SDS011;21790;42.668;23.298;2023-10-19T00:00:37;21.10;;;13.63;;
35675;SDS011;21790;42.668;23.298;2023-10-19T00:03:06;19.60;;;11.88;;
35675;SDS011;21790;42.668;23.298;2023-10-19T00:08:03;23.00;;;13.10;;
35675;SDS011;21790;42.668;23.298;2023-10-19T00:32:34;21.38;;;12.30;;
35675;SDS011;21790;42.668;23.298;2023-10-19T00:37:57;21.05;;;12.55;;
35675;SDS011;21790;42.668;23.298;2023-10-19T00:43:45;27.95;;;15.82;;
35675;SDS011;21790;42.668;23.298;2023-10-19T00:46:16;30.30;;;15.65;;
35675;SDS011;21790;42.668;23.298;2023-10-19T00:48:51;31.63;;;16.45;;
35675;SDS011;21790;42.668;23.298;2023-10-19T00:51:33;27.63;;;14.30;;
35675;SDS011;21790;42.668;23.298;2023-10-19T00:57:25;29.65;;;14.07;;
35675;SDS011;21790;42.668;23.298;2023-10-19T01:03:00;22.52;;;11.30;;
35675;SDS011;21790;42.668;23.298;2023-10-19T01:05:33;20.58;;;12.63;;
35675;SDS011;21790;42.668;23.298;2023-10-19T01:08:02;23.35;;;13.38;;
35675;SDS011;21790;42.668;23.298;2023-10-19T01:10:41;21.90;;;12.55;;
35675;SDS011;21790;42.668;23.298;2023-10-19T01:13:10;22.35;;;12.80;;
35675;SDS011;21790;42.668;23.298;2023-10-19T01:15:43;25.10;;;13.43;;
35675;SDS011;21790;42.668;23.298;2023-10-19T01:18:10;23.47;;;12.93;;
35675;SDS011;21790;42.668;23.298;2023-10-19T01:20:48;23.13;;;13.70;;
35675;SDS011;21790;42.668;23.298;2023-10-19T01:23:22;22.75;;;12.70;;
35675;SDS011;21790;42.668;23.298;2023-10-19T01:25:51;21.83;;;13.63;;
35675;SDS011;21790;42.668;23.298;2023-10-19T01:36:54;26.35;;;13.88;;
35675;SDS011;21790;42.668;23.298;2023-10-19T01:42:15;24.55;;;13.43;;
35675;SDS011;21790;42.668;23.298;2023-10-19T01:44:42;22.23;;;12.20;;
35675;SDS011;21790;42.668;23.298;2023-10-19T01:47:07;23.30;;;13.38;;
35675;SDS011;21790;42.668;23.298;2023-10-19T01:49:35;30.13;;;13.52;;
35675;SDS011;21790;42.668;23.298;2023-10-19T01:52:02;27.13;;;13.50;;
35675;SDS011;21790;42.668;23.298;2023-10-19T01:54:34;21.45;;;13.00;;
35675;SDS011;21790;42.668;23.298;2023-10-19T01:57:04;21.10;;;13.10;;
35675;SDS011;21790;42.668;23.298;2023-10-19T01:59:30;21.35;;;12.98;;
35675;SDS011;21790;42.668;23.298;2023-10-19T02:01:56;19.95;;;12.95;;
35675;SDS011;21790;42.668;23.298;2023-10-19T02:04:23;23.63;;;13.45;;
35675;SDS011;21790;42.668;23.298;2023-10-19T02:06:52;23.70;;;13.40;;
35675;SDS011;21790;42.668;23.298;2023-10-19T02:09:19;21.42;;;12.68;;
35675;SDS011;21790;42.668;23.298;2023-10-19T02:11:45;23.05;;;12.77;;
35675;SDS011;21790;42.668;23.298;2023-10-19T02:14:15;22.25;;;12.77;;
35675;SDS011;21790;42.668;23.298;2023-10-19T02:16:46;21.48;;;12.98;;
35675;SDS011;21790;42.668;23.298;2023-10-19T02:19:20;23.63;;;13.32;;
35675;SDS011;21790;42.668;23.298;2023-10-19T02:21:50;17.48;;;11.57;;
35675;SDS011;21790;42.668;23.298;2023-10-19T02:24:29;22.58;;;13.32;;
35675;SDS011;21790;42.668;23.298;2023-10-19T02:26:55;22.10;;;12.05;;
35675;SDS011;21790;42.668;23.298;2023-10-19T02:29:22;24.33;;;12.90;;
35675;SDS011;21790;42.668;23.298;2023-10-19T02:31:48;22.35;;;12.32;;
35675;SDS011;21790;42.668;23.298;2023-10-19T02:34:14;19.95;;;13.25;;
35675;SDS011;21790;42.668;23.298;2023-10-19T02:36:42;23.20;;;13.23;;
35675;SDS011;21790;42.668;23.298;2023-10-19T02:39:09;21.58;;;13.18;;
35675;SDS011;21790;42.668;23.298;2023-10-19T02:41:42;22.30;;;13.88;;
35675;SDS011;21790;42.668;23.298;2023-10-19T02:44:10;20.70;;;13.73;;
35675;SDS011;21790;42.668;23.298;2023-10-19T02:46:53;24.63;;;14.98;;
35675;SDS011;21790;42.668;23.298;2023-10-19T02:49:42;27.08;;;13.75;;
35675;SDS011;21790;42.668;23.298;2023-10-19T02:52:11;22.33;;;13.43;;
35675;SDS011;21790;42.668;23.298;2023-10-19T02:57:11;23.30;;;14.07;;
35675;SDS011;21790;42.668;23.298;2023-10-19T02:59:38;24.80;;;13.88;;
35675;SDS011;21790;42.668;23.298;2023-10-19T03:02:05;22.38;;;13.25;;
35675;SDS011;21790;42.668;23.298;2023-10-19T03:04:33;25.00;;;13.18;;
35675;SDS011;21790;42.668;23.298;2023-10-19T03:07:06;22.17;;;12.93;;
35675;SDS011;21790;42.668;23.298;2023-10-19T03:12:32;20.67;;;12.30;;
35675;SDS011;21790;42.668;23.298;2023-10-19T03:14:59;24.08;;;13.23;;
35675;SDS011;21790;42.668;23.298;2023-10-19T03:17:25;24.17;;;13.30;;
35675;SDS011;21790;42.668;23.298;2023-10-19T03:19:54;27.08;;;13.02;;
35675;SDS011;21790;42.668;23.298;2023-10-19T03:22:22;23.05;;;13.63;;
35675;SDS011;21790;42.668;23.298;2023-10-19T03:24:48;25.85;;;12.85;;
35675;SDS011;21790;42.668;23.298;2023-10-19T03:27:23;21.20;;;12.63;;
35675;SDS011;21790;42.668;23.298;2023-10-19T03:29:52;22.05;;;13.45;;
35675;SDS011;21790;42.668;23.298;2023-10-19T03:32:21;20.48;;;12.13;;
35675;SDS011;21790;42.668;23.298;2023-10-19T03:34:51;16.85;;;10.77;;
35675;SDS011;21790;42.668;23.298;2023-10-19T03:37:33;21.02;;;11.48;;
35675;SDS011;21790;42.668;23.298;2023-10-19T03:40:00;21.88;;;11.80;;
35675;SDS011;21790;42.668;23.298;2023-10-19T03:42:34;20.25;;;12.27;;
35675;SDS011;21790;42.668;23.298;2023-10-19T03:45:10;20.20;;;11.90;;
35675;SDS011;21790;42.668;23.298;2023-10-19T03:47:39;20.42;;;12.30;;
35675;SDS011;21790;42.668;23.298;2023-10-19T03:50:09;24.90;;;12.35;;
35675;SDS011;21790;42.668;23.298;2023-10-19T03:52:42;20.27;;;13.23;;
35675;SDS011;21790;42.668;23.298;2023-10-19T03:55:09;19.02;;;11.82;;
35675;SDS011;21790;42.668;23.298;2023-10-19T04:00:37;22.63;;;12.48;;
35675;SDS011;21790;42.668;23.298;2023-10-19T04:03:06;35.92;;;13.70;;
35675;SDS011;21790;42.668;23.298;2023-10-19T04:05:43;20.55;;;12.68;;
35675;SDS011;21790;42.668;23.298;2023-10-19T04:08:19;29.48;;;13.68;;
35675;SDS011;21790;42.668;23.298;2023-10-19T04:11:06;26.88;;;13.73;;
35675;SDS011;21790;42.668;23.298;2023-10-19T04:13:51;27.10;;;13.20;;
35675;SDS011;21790;42.668;23.298;2023-10-19T04:16:19;23.45;;;12.80;;
35675;SDS011;21790;42.668;23.298;2023-10-19T04:18:46;24.10;;;12.93;;
35675;SDS011;21790;42.668;23.298;2023-10-19T04:21:14;19.05;;;12.18;;
35675;SDS011;21790;42.668;23.298;2023-10-19T04:23:42;20.27;;;12.43;;
35675;SDS011;21790;42.668;23.298;2023-10-19T04:28:41;20.52;;;12.90;;
35675;SDS011;21790;42.668;23.298;2023-10-19T04:31:26;36.72;;;16.33;;
35675;SDS011;21790;42.668;23.298;2023-10-19T04:39:21;28.52;;;16.38;;
35675;SDS011;21790;42.668;23.298;2023-10-19T04:41:46;32.97;;;15.13;;
35675;SDS011;21790;42.668;23.298;2023-10-19T04:47:05;28.25;;;14.60;;
35675;SDS011;21790;42.668;23.298;2023-10-19T04:49:36;27.52;;;13.52;;
35675;SDS011;21790;42.668;23.298;2023-10-19T04:55:22;33.75;;;17.40;;
35675;SDS011;21790;42.668;23.298;2023-10-19T05:01:10;40.75;;;18.88;;
35675;SDS011;21790;42.668;23.298;2023-10-19T05:09:51;42.08;;;19.10;;
35675;SDS011;21790;42.668;23.298;2023-10-19T05:12:36;37.25;;;18.08;;
35675;SDS011;21790;42.668;23.298;2023-10-19T05:15:14;38.92;;;17.98;;
35675;SDS011;21790;42.668;23.298;2023-10-19T05:20:39;33.95;;;17.90;;
35675;SDS011;21790;42.668;23.298;2023-10-19T06:28:57;38.30;;;22.17;;
35675;SDS011;21790;42.668;23.298;2023-10-19T06:41:56;33.30;;;18.70;;
35675;SDS011;21790;42.668;23.298;2023-10-19T06:53:43;31.13;;;17.95;;
35675;SDS011;21790;42.668;23.298;2023-10-19T06:59:31;29.77;;;17.38;;
35675;SDS011;21790;42.668;23.298;2023-10-19T07:09:00;25.05;;;14.20;;
35675;SDS011;21790;42.668;23.298;2023-10-19T07:23:27;19.20;;;13.45;;
35675;SDS011;21790;42.668;23.298;2023-10-19T07:32:25;26.35;;;12.63;;
35675;SDS011;21790;42.668;23.298;2023-10-19T07:38:15;20.10;;;12.82;;
35675;SDS011;21790;42.668;23.298;2023-10-19T07:40:42;18.27;;;12.48;;
35675;SDS011;21790;42.668;23.298;2023-10-19T07:43:14;42.35;;;13.40;;
35675;SDS011;21790;42.668;23.298;2023-10-19T07:45:42;19.60;;;12.18;;
35675;SDS011;21790;42.668;23.298;2023-10-19T07:48:18;19.08;;;12.77;;
35675;SDS011;21790;42.668;23.298;2023-10-19T07:53:40;27.70;;;12.20;;
35675;SDS011;21790;42.668;23.298;2023-10-19T22:47:22;26.45;;;15.23;;
35675;SDS011;21790;42.668;23.298;2023-10-19T22:49:48;24.35;;;13.27;;
35675;SDS011;21790;42.668;23.298;2023-10-19T22:52:13;17.55;;;12.13;;
35675;SDS011;21790;42.668;23.298;2023-10-19T22:54:39;20.77;;;13.48;;
35675;SDS011;21790;42.668;23.298;2023-10-19T22:57:04;24.58;;;13.05;;
35675;SDS011;21790;42.668;23.298;2023-10-19T22:59:33;21.38;;;13.10;;
35675;SDS011;21790;42.668;23.298;2023-10-19T23:02:00;22.77;;;13.40;;
35675;SDS011;21790;42.668;23.298;2023-10-19T23:04:26;24.70;;;13.75;;
35675;SDS011;21790;42.668;23.298;2023-10-19T23:06:53;28.63;;;13.77;;
35675;SDS011;21790;42.668;23.298;2023-10-19T23:09:19;20.90;;;12.57;;
35675;SDS011;21790;42.668;23.298;2023-10-19T23:11:56;20.17;;;12.23;;
35675;SDS011;21790;42.668;23.298;2023-10-19T23:14:30;20.15;;;11.82;;
35675;SDS011;21790;42.668;23.298;2023-10-19T23:16:57;22.75;;;12.25;;
35675;SDS011;21790;42.668;23.298;2023-10-19T23:19:31;20.80;;;13.02;;
35675;SDS011;21790;42.668;23.298;2023-10-19T23:24:31;17.48;;;11.55;;
35675;SDS011;21790;42.668;23.298;2023-10-19T23:26:57;18.50;;;12.63;;
35675;SDS011;21790;42.668;23.298;2023-10-19T23:29:23;16.70;;;12.45;;
35675;SDS011;21790;42.668;23.298;2023-10-19T23:31:53;19.35;;;11.95;;
35675;SDS011;21790;42.668;23.298;2023-10-19T23:34:19;21.50;;;13.20;;
35675;SDS011;21790;42.668;23.298;2023-10-19T23:36:44;18.83;;;11.88;;
35675;SDS011;21790;42.668;23.298;2023-10-19T23:39:10;17.58;;;12.50;;
35675;SDS011;21790;42.668;23.298;2023-10-19T23:41:41;17.13;;;12.18;;
35675;SDS011;21790;42.668;23.298;2023-10-19T23:44:07;19.30;;;11.60;;
35675;SDS011;21790;42.668;23.298;2023-10-19T23:46:33;20.70;;;11.50;;
35675;SDS011;21790;42.668;23.298;2023-10-19T23:48:59;16.50;;;10.82;;
35675;SDS011;21790;42.668;23.298;2023-10-19T23:51:26;19.10;;;12.00;;
35675;SDS011;21790;42.668;23.298;2023-10-19T23:53:55;16.48;;;11.18;;
35675;SDS011;21790;42.668;23.298;2023-10-19T23:56:20;18.65;;;10.73;;
35675;SDS011;21790;42.668;23.298;2023-10-19T23:58:46;17.25;;;10.95;;
